RKSS/GMP METAR and TAF weather

Enter ICAO airport designator
Station Type Date Time Source
RKSS METAR 2020/12/06 00:00 UTC NOAA

RKSS 060000Z 16005KT 8000 SCT040 03/M01 Q1029 NOSIG


Station Type Date Time Source
RKSS Decoded METAR 2020/12/06 00:00 UTC NOAA

Seoul / Kimp'O International Airport, Korea, South (RKSS) 37-33N 126-48E 18M
Dec 05, 2020 - 07:00 PM EST / 2020.12.06 0000 UTC
Wind: from the SSE (160 degrees) at 6 MPH (5 KT):0
Visibility: 4 mile(s):0
Sky conditions: partly cloudy
Temperature: 37 F (3 C)
Dew Point: 30 F (-1 C)
Relative Humidity: 74%
Pressure (altimeter): 30.39 in. Hg (1029 hPa)
ob: RKSS 060000Z 16005KT 8000 SCT040 03/M01 Q1029 NOSIG
cycle: 0

Station Type Date Time Source
RKSS TAF 2020/12/05 18:07 UTC NOAA

TAF RKSS 051700Z 0518/0624 15005KT 6000 BKN040 TNM02/0522Z TX10/0606Z TN00/0622Z
BECMG 0602/0603 26006KT 9999 SCT040
BECMG 0617/0618 31005KT 4000 BR BKN030 BKN070
BECMG 0622/0623 6000 NSW

Example: see airport list